Weather at Manchester Airport

Public forecast

Using degrees Celsius for public forecast. Weather courtesy of forecast.io.

Current aviation weather report (METAR) for Manchester Airport

Retrieved 2022/01/22 21:20 UTC (34 minutes ago):

EGCC 222120Z AUTO 25005KT 9999 OVC016 06/05 Q1036 TEMPO BKN012

Aviation forecast (TAF) for Manchester Airport

Retrieved 2022/01/22 18:05 UTC (4 hours ago):

TAF EGCC 221659Z 2218/2324 28005KT 9999 SCT020 TEMPO 2218/2303 BKN010 PROB40 TEMPO 2218/2303 6000 BKN006 BECMG 2312/2315 20010KT